createdAt,value
2022-07-27T00:01:50.994Z,1.98
2022-07-27T00:04:20.678Z,2.72
2022-07-27T00:06:48.172Z,1.88
2022-07-27T00:09:15.378Z,2.05
2022-07-27T00:11:42.203Z,1.95
2022-07-27T00:14:09.094Z,2.03
2022-07-27T00:16:35.919Z,1.90
2022-07-27T00:19:02.870Z,1.70
2022-07-27T00:21:29.714Z,2.10
2022-07-27T00:23:56.476Z,2.30
2022-07-27T00:26:23.360Z,1.77
2022-07-27T00:28:50.197Z,1.98
2022-07-27T00:31:17.139Z,1.90
2022-07-27T00:33:43.900Z,2.20
2022-07-27T00:36:10.842Z,2.15
2022-07-27T00:38:37.807Z,2.10
2022-07-27T00:41:04.904Z,2.22
2022-07-27T00:43:31.596Z,2.20
2022-07-27T00:45:58.194Z,2.00
2022-07-27T00:48:24.809Z,2.10
2022-07-27T00:50:55.365Z,2.20
2022-07-27T00:53:22.067Z,1.88
2022-07-27T00:55:48.836Z,2.17
2022-07-27T00:58:17.170Z,1.70
2022-07-27T01:00:44.362Z,1.85
2022-07-27T01:03:11.110Z,2.30
2022-07-27T01:05:43.271Z,2.22
2022-07-27T01:08:12.606Z,2.20
2022-07-27T01:10:40.817Z,2.40
2022-07-27T01:13:12.693Z,2.00
2022-07-27T01:15:40.557Z,1.90
2022-07-27T01:18:26.926Z,1.98
2022-07-27T01:20:54.238Z,2.28
2022-07-27T01:23:21.084Z,1.90
2022-07-27T01:25:48.391Z,2.05
2022-07-27T01:28:15.053Z,2.40
2022-07-27T01:30:41.897Z,2.35
2022-07-27T01:33:09.760Z,2.33
2022-07-27T01:35:38.718Z,2.40
2022-07-27T01:38:07.133Z,2.20
2022-07-27T01:40:36.744Z,2.10
2022-07-27T01:43:05.160Z,2.40
2022-07-27T01:45:32.120Z,2.50
2022-07-27T01:47:58.901Z,2.30
2022-07-27T01:50:25.523Z,2.45
2022-07-27T01:52:52.154Z,2.38
2022-07-27T01:55:18.908Z,2.15
2022-07-27T01:57:45.591Z,2.22
2022-07-27T02:00:13.490Z,2.78
2022-07-27T02:02:40.766Z,2.40
2022-07-27T02:05:11.731Z,2.85
2022-07-27T02:07:40.198Z,3.03
2022-07-27T02:10:07.953Z,2.83
2022-07-27T02:12:37.492Z,2.55
2022-07-27T02:15:14.772Z,2.30
2022-07-27T02:17:45.535Z,2.70
2022-07-27T02:20:14.729Z,2.47
2022-07-27T02:22:42.352Z,2.72
2022-07-27T02:25:10.400Z,2.75
2022-07-27T02:27:37.059Z,2.75
2022-07-27T02:30:05.352Z,2.30
2022-07-27T02:32:32.177Z,2.60
2022-07-27T02:34:58.966Z,2.50
2022-07-27T02:37:25.697Z,3.00
2022-07-27T02:39:53.074Z,2.40
2022-07-27T02:42:20.171Z,2.92
2022-07-27T02:44:46.817Z,2.35
2022-07-27T02:47:13.453Z,2.90
2022-07-27T02:49:40.079Z,2.50
2022-07-27T02:52:06.798Z,2.90
2022-07-27T02:54:33.757Z,2.47
2022-07-27T02:57:04.960Z,2.70
2022-07-27T02:59:31.989Z,3.25
2022-07-27T03:01:58.753Z,2.70
2022-07-27T03:04:25.777Z,3.47
2022-07-27T03:06:52.878Z,2.90
2022-07-27T03:09:19.585Z,2.83
2022-07-27T03:11:59.513Z,3.03
2022-07-27T03:14:26.207Z,3.17
2022-07-27T03:16:52.877Z,2.70
2022-07-27T03:19:20.153Z,2.63
2022-07-27T03:21:47.164Z,3.03
2022-07-27T03:24:13.849Z,2.80
2022-07-27T03:26:40.487Z,3.00
2022-07-27T03:29:07.228Z,3.28
2022-07-27T03:31:33.963Z,2.90
2022-07-27T03:34:02.034Z,2.88
2022-07-27T03:36:29.098Z,3.25
2022-07-27T03:38:57.394Z,2.90
2022-07-27T03:41:24.055Z,3.83
2022-07-27T03:43:50.706Z,3.20
2022-07-27T03:46:17.316Z,3.10
2022-07-27T03:48:44.044Z,4.18
2022-07-27T03:51:10.736Z,3.83
2022-07-27T03:53:37.347Z,3.17
2022-07-27T03:59:10.259Z,3.70
2022-07-27T04:01:37.174Z,3.13
2022-07-27T04:04:03.887Z,3.03
2022-07-27T04:06:30.730Z,3.00
2022-07-27T04:09:08.261Z,3.08
2022-07-27T04:11:43.615Z,3.10
2022-07-27T04:14:17.568Z,3.50
2022-07-27T04:16:44.269Z,3.00
2022-07-27T04:19:11.377Z,3.40
2022-07-27T04:21:38.762Z,3.28
2022-07-27T04:24:06.982Z,3.33
2022-07-27T04:26:33.623Z,4.38
2022-07-27T04:29:00.374Z,3.40
2022-07-27T04:31:27.025Z,3.97
2022-07-27T04:33:53.697Z,3.70
2022-07-27T04:36:20.364Z,3.17
2022-07-27T04:38:47.168Z,3.40
2022-07-27T04:41:13.893Z,3.50
2022-07-27T04:43:41.383Z,3.50
2022-07-27T04:46:13.133Z,3.58
2022-07-27T04:48:42.186Z,4.10
2022-07-27T04:51:17.213Z,4.37
2022-07-27T04:53:57.638Z,3.90
2022-07-27T04:56:26.946Z,3.90
2022-07-27T04:58:54.542Z,4.10
2022-07-27T05:01:22.904Z,3.93
2022-07-27T05:03:49.825Z,3.80
2022-07-27T05:06:17.370Z,4.30
2022-07-27T05:08:44.150Z,3.80
2022-07-27T05:11:10.855Z,4.00
2022-07-27T05:13:40.969Z,4.20
2022-07-27T05:16:11.482Z,3.60
2022-07-27T05:18:39.120Z,3.87
2022-07-27T05:21:06.999Z,3.33
2022-07-27T05:23:33.909Z,3.00
2022-07-27T05:26:03.166Z,3.13
2022-07-27T05:28:29.978Z,3.23
2022-07-27T05:30:56.742Z,3.05
2022-07-27T05:33:23.453Z,3.13
2022-07-27T05:35:50.131Z,3.60
2022-07-27T05:38:17.403Z,3.63
2022-07-27T05:40:45.586Z,3.30
2022-07-27T05:43:12.373Z,3.38
2022-07-27T05:45:39.186Z,3.05
2022-07-27T05:48:06.287Z,3.90
2022-07-27T05:50:32.973Z,3.00
2022-07-27T05:53:00.576Z,3.05
2022-07-27T05:55:27.399Z,2.70
2022-07-27T05:57:54.030Z,2.72
2022-07-27T06:00:20.663Z,3.40
2022-07-27T06:02:47.425Z,3.03
2022-07-27T06:05:17.670Z,2.90
2022-07-27T06:08:03.490Z,2.67
2022-07-27T06:10:33.025Z,2.87
2022-07-27T06:13:01.054Z,2.80
2022-07-27T06:15:27.794Z,2.73
2022-07-27T06:17:55.459Z,2.60
2022-07-27T06:20:23.670Z,2.50
2022-07-27T06:22:52.796Z,2.50
2022-07-27T06:25:20.753Z,2.45
2022-07-27T06:27:48.122Z,2.70
2022-07-27T06:30:17.225Z,2.20
2022-07-27T06:32:44.535Z,2.20
2022-07-27T06:35:12.648Z,2.20
2022-07-27T06:37:43.939Z,2.10
2022-07-27T06:40:14.483Z,2.10
2022-07-27T06:42:41.848Z,2.40
2022-07-27T06:45:09.429Z,2.15
2022-07-27T06:47:36.752Z,2.27
2022-07-27T06:50:17.981Z,2.53
2022-07-27T06:52:45.016Z,2.08
2022-07-27T06:55:11.976Z,1.98
2022-07-27T06:57:38.689Z,2.17
2022-07-27T07:00:06.788Z,1.98
2022-07-27T07:02:33.625Z,2.10
2022-07-27T07:05:00.313Z,2.30
2022-07-27T07:07:27.170Z,2.30
2022-07-27T07:09:53.828Z,2.22
2022-07-27T07:12:20.569Z,2.10
2022-07-27T07:14:47.333Z,2.00
2022-07-27T07:17:13.990Z,1.90
2022-07-27T07:19:40.685Z,2.60
2022-07-27T07:22:07.447Z,2.10
2022-07-27T07:24:36.627Z,2.17
2022-07-27T07:27:03.299Z,2.35
2022-07-27T07:29:31.051Z,2.50
2022-07-27T07:31:57.739Z,2.20
2022-07-27T07:34:24.518Z,2.42
2022-07-27T07:36:51.220Z,2.22
2022-07-27T07:39:17.864Z,2.90
2022-07-27T07:41:44.516Z,2.50
2022-07-27T07:44:11.244Z,2.50
2022-07-27T07:46:38.151Z,2.58
2022-07-27T07:49:05.343Z,2.83
2022-07-27T07:51:32.111Z,2.35
2022-07-27T07:53:58.960Z,2.20
2022-07-27T07:56:28.213Z,2.88
2022-07-27T07:58:54.976Z,2.75
2022-07-27T08:01:21.756Z,2.95
2022-07-27T08:03:51.141Z,2.92
2022-07-27T08:06:19.040Z,2.63
2022-07-27T08:08:46.166Z,3.22
2022-07-27T08:11:12.910Z,2.70
2022-07-27T08:13:39.767Z,2.92
2022-07-27T08:16:06.724Z,3.03
2022-07-27T08:18:33.482Z,3.47
2022-07-27T08:21:00.136Z,3.10
2022-07-27T08:23:27.027Z,3.50
2022-07-27T08:25:54.668Z,3.10
2022-07-27T08:28:21.615Z,3.60
2022-07-27T08:30:49.330Z,3.30
2022-07-27T08:33:16.559Z,2.80
2022-07-27T08:35:43.284Z,2.93
2022-07-27T08:38:10.154Z,3.90
2022-07-27T08:40:44.351Z,3.40
2022-07-27T08:43:18.963Z,3.13
2022-07-27T08:46:00.363Z,3.17
2022-07-27T08:48:31.012Z,2.73
2022-07-27T08:50:58.251Z,2.83
2022-07-27T08:53:25.502Z,3.00
2022-07-27T08:55:52.365Z,3.00
2022-07-27T08:58:19.274Z,2.93
2022-07-27T09:00:48.440Z,2.67
2022-07-27T09:03:20.200Z,2.70
2022-07-27T09:05:50.285Z,2.77
2022-07-27T09:08:26.053Z,2.63
2022-07-27T09:10:56.138Z,2.38
2022-07-27T09:13:22.789Z,2.80
2022-07-27T09:18:40.371Z,2.78
2022-07-27T09:21:16.568Z,3.03
2022-07-27T09:23:51.897Z,3.03
2022-07-27T09:26:37.281Z,3.10
2022-07-27T09:29:07.185Z,2.97
2022-07-27T09:31:45.400Z,3.17
2022-07-27T09:34:13.497Z,3.40
2022-07-27T09:36:54.745Z,2.80
2022-07-27T09:39:24.150Z,3.00
2022-07-27T09:41:52.554Z,3.40
2022-07-27T09:44:43.452Z,2.65
2022-07-27T09:47:28.896Z,3.03
2022-07-27T09:50:19.811Z,2.83
2022-07-27T09:52:47.222Z,3.07
2022-07-27T09:55:14.232Z,3.00
2022-07-27T09:57:56.824Z,2.77
2022-07-27T10:00:24.630Z,2.80
2022-07-27T10:02:52.691Z,2.93
2022-07-27T10:05:24.525Z,2.80
2022-07-27T10:07:53.405Z,2.80
2022-07-27T10:10:21.550Z,2.83
2022-07-27T10:12:54.113Z,2.90
2022-07-27T10:15:21.863Z,2.77
2022-07-27T10:17:55.736Z,3.00
2022-07-27T10:20:22.663Z,2.50
2022-07-27T10:22:55.120Z,2.60
2022-07-27T10:25:24.331Z,2.80
2022-07-27T10:28:13.131Z,2.60
2022-07-27T10:30:40.078Z,2.80
2022-07-27T10:33:14.467Z,2.50
2022-07-27T10:35:41.804Z,2.60
2022-07-27T10:38:15.267Z,2.63
2022-07-27T10:40:43.585Z,3.17
2022-07-27T10:43:28.409Z,2.93
2022-07-27T10:46:02.771Z,2.90
2022-07-27T10:48:47.743Z,2.63
2022-07-27T10:51:16.340Z,2.60
2022-07-27T10:54:10.912Z,2.80
2022-07-27T10:56:48.238Z,3.40
2022-07-27T10:59:15.365Z,3.00
2022-07-27T11:01:58.296Z,2.80
2022-07-27T11:04:25.413Z,3.20
2022-07-27T11:07:23.624Z,2.73
2022-07-27T11:12:31.363Z,2.57
2022-07-27T11:14:58.787Z,3.20
2022-07-27T11:20:14.204Z,3.10
2022-07-27T11:25:28.614Z,3.10
2022-07-27T11:27:55.391Z,2.27
2022-07-27T11:30:28.265Z,2.87
2022-07-27T11:32:56.079Z,2.93
2022-07-27T11:35:24.718Z,3.00
2022-07-27T11:38:03.519Z,2.80
2022-07-27T11:41:12.708Z,2.90
2022-07-27T11:43:33.775Z,2.67
2022-07-27T11:46:12.806Z,2.40
2022-07-27T11:49:06.594Z,2.57
2022-07-27T11:51:48.657Z,2.63
2022-07-27T11:54:29.698Z,2.50
2022-07-27T11:57:03.582Z,2.50
2022-07-27T11:59:44.474Z,3.10
2022-07-27T12:02:18.242Z,2.43
2022-07-27T12:04:47.647Z,2.53
2022-07-27T12:07:33.351Z,2.67
2022-07-27T12:10:02.551Z,2.60
2022-07-27T12:12:37.017Z,2.23
2022-07-27T12:18:05.789Z,2.40
2022-07-27T12:20:34.840Z,2.95
2022-07-27T12:23:07.189Z,2.50
2022-07-27T12:25:35.104Z,2.50
2022-07-27T12:28:07.783Z,2.60
2022-07-27T12:30:51.930Z,2.50
2022-07-27T12:33:37.881Z,2.75
2022-07-27T12:36:07.847Z,2.88
2022-07-27T12:38:45.705Z,2.20
2022-07-27T12:41:38.029Z,2.30
2022-07-27T12:44:12.583Z,2.50
2022-07-27T12:46:52.780Z,2.63
2022-07-27T12:49:24.671Z,2.60
2022-07-27T12:51:51.961Z,2.35
2022-07-27T12:54:19.609Z,2.65
2022-07-27T12:56:47.591Z,2.13
2022-07-27T12:59:15.174Z,2.80
2022-07-27T13:01:42.187Z,2.40
2022-07-27T13:04:08.866Z,2.60
2022-07-27T13:06:35.507Z,2.20
2022-07-27T13:09:02.129Z,2.20
2022-07-27T13:11:28.854Z,2.30
2022-07-27T13:13:55.527Z,2.28
2022-07-27T13:16:22.276Z,2.13
2022-07-27T13:18:49.130Z,2.40
2022-07-27T13:21:15.841Z,2.20
2022-07-27T13:23:42.745Z,2.10
2022-07-27T13:26:09.370Z,2.75
2022-07-27T13:28:36.496Z,2.40
2022-07-27T13:31:03.190Z,2.30
2022-07-27T13:33:29.924Z,2.03
2022-07-27T13:36:00.861Z,2.30
2022-07-27T13:38:28.631Z,2.03
2022-07-27T13:40:55.591Z,2.28
2022-07-27T13:43:22.331Z,1.90
2022-07-27T13:45:49.397Z,2.10
2022-07-27T13:48:16.619Z,1.90
2022-07-27T13:50:43.379Z,1.95
2022-07-27T13:53:10.108Z,2.05
2022-07-27T13:55:42.517Z,2.20
2022-07-27T13:58:09.254Z,1.83
2022-07-27T14:00:36.399Z,2.00
2022-07-27T14:03:03.352Z,2.05
2022-07-27T14:05:30.509Z,1.75
2022-07-27T14:07:59.061Z,2.08
2022-07-27T14:10:32.422Z,1.92
2022-07-27T14:13:07.413Z,2.28
2022-07-27T14:15:50.601Z,2.10
2022-07-27T14:18:20.636Z,2.17
2022-07-27T14:20:47.300Z,2.00
2022-07-27T14:23:14.027Z,1.88
2022-07-27T14:25:40.660Z,2.25
2022-07-27T14:28:07.307Z,2.17
2022-07-27T14:30:34.444Z,1.70
2022-07-27T14:33:02.901Z,2.05
2022-07-27T14:35:30.037Z,2.00
2022-07-27T14:37:58.425Z,1.88
2022-07-27T14:40:25.658Z,2.10
2022-07-27T14:42:52.487Z,2.10
2022-07-27T14:45:19.866Z,2.05
2022-07-27T14:47:47.244Z,2.08
2022-07-27T14:50:14.951Z,2.00
2022-07-27T14:52:41.789Z,2.17
2022-07-27T14:55:09.464Z,1.90
2022-07-27T14:57:36.938Z,1.70
2022-07-27T15:00:10.405Z,1.90
2022-07-27T15:02:38.086Z,1.40
2022-07-27T15:05:05.564Z,1.70
2022-07-27T15:07:32.860Z,1.52
2022-07-27T15:09:59.689Z,1.77
2022-07-27T15:12:27.039Z,1.70
2022-07-27T15:14:54.166Z,1.77
2022-07-27T15:17:21.162Z,1.80
2022-07-27T15:19:48.152Z,1.60
2022-07-27T15:22:14.989Z,1.25
2022-07-27T15:24:41.773Z,1.55
2022-07-27T15:27:08.742Z,1.65
2022-07-27T15:29:36.485Z,1.60
2022-07-27T15:32:04.051Z,1.70
2022-07-27T15:34:30.704Z,1.58
2022-07-27T15:36:57.977Z,1.50
2022-07-27T15:39:24.949Z,1.55
2022-07-27T15:41:51.590Z,1.50
2022-07-27T15:44:22.030Z,1.45
2022-07-27T15:46:48.893Z,1.75
2022-07-27T15:49:16.259Z,2.13
2022-07-27T15:51:43.168Z,1.50
2022-07-27T15:54:09.854Z,1.95
2022-07-27T15:56:36.477Z,1.75
2022-07-27T15:59:03.306Z,1.40
2022-07-27T16:01:35.517Z,1.42
2022-07-27T16:04:03.785Z,1.77
2022-07-27T16:06:34.091Z,1.48
2022-07-27T16:09:05.000Z,1.70
2022-07-27T16:11:32.015Z,1.55
2022-07-27T16:13:58.708Z,1.85
2022-07-27T16:16:25.637Z,1.45
2022-07-27T16:18:53.820Z,1.50
2022-07-27T16:21:22.466Z,1.48
2022-07-27T16:23:50.015Z,1.40
2022-07-27T16:26:16.759Z,1.70
2022-07-27T16:28:47.008Z,1.65
2022-07-27T16:31:18.441Z,1.55
2022-07-27T16:33:45.402Z,1.30
2022-07-27T16:36:12.803Z,1.73
2022-07-27T16:38:47.655Z,1.48
2022-07-27T16:41:17.317Z,1.60
2022-07-27T16:43:44.020Z,1.48
2022-07-27T16:46:11.696Z,1.83
2022-07-27T16:48:42.485Z,1.50
2022-07-27T16:51:14.521Z,1.73
2022-07-27T16:53:43.519Z,1.83
2022-07-27T16:56:11.345Z,1.80
2022-07-27T16:58:38.625Z,1.50
2022-07-27T17:01:05.633Z,1.40
2022-07-27T17:03:32.361Z,1.50
2022-07-27T17:06:03.620Z,1.42
2022-07-27T17:08:32.454Z,1.33
2022-07-27T17:11:00.453Z,1.25
2022-07-27T17:13:33.560Z,1.40
2022-07-27T17:16:04.945Z,1.75
2022-07-27T17:18:39.007Z,1.52
2022-07-27T17:21:07.460Z,1.40
2022-07-27T17:23:38.350Z,1.33
2022-07-27T17:26:07.257Z,1.40
2022-07-27T17:28:36.816Z,1.38
2022-07-27T17:31:04.646Z,1.35
2022-07-27T17:33:31.802Z,1.33
2022-07-27T17:35:59.019Z,1.65
2022-07-27T17:38:27.588Z,1.67
2022-07-27T17:40:54.408Z,1.42
2022-07-27T17:43:21.069Z,1.48
2022-07-27T17:45:48.415Z,1.40
2022-07-27T17:48:15.083Z,1.60
2022-07-27T17:50:41.774Z,1.45
2022-07-27T17:53:08.421Z,1.65
2022-07-27T17:55:36.577Z,1.55
2022-07-27T17:58:03.399Z,1.85
2022-07-27T18:00:30.740Z,1.67
2022-07-27T18:02:57.514Z,1.95
2022-07-27T18:05:24.333Z,1.77
2022-07-27T18:07:53.217Z,1.60
2022-07-27T18:10:20.577Z,1.50
2022-07-27T18:12:47.255Z,1.58
2022-07-27T18:15:32.743Z,1.40
2022-07-27T18:17:59.576Z,1.60
2022-07-27T18:20:26.774Z,1.60
2022-07-27T18:22:53.646Z,1.65
2022-07-27T18:25:22.058Z,1.50
2022-07-27T18:27:49.975Z,1.48
2022-07-27T18:30:17.629Z,2.03
2022-07-27T18:32:45.384Z,1.63
2022-07-27T18:35:12.700Z,1.42
2022-07-27T18:37:39.655Z,1.88
2022-07-27T18:40:07.152Z,1.55
2022-07-27T18:42:33.948Z,1.67
2022-07-27T18:45:00.624Z,1.60
2022-07-27T18:47:27.293Z,1.88
2022-07-27T18:49:54.005Z,1.77
2022-07-27T18:52:20.708Z,1.80
2022-07-27T18:54:47.357Z,1.75
2022-07-27T18:57:14.180Z,1.70
2022-07-27T18:59:41.392Z,1.80
2022-07-27T19:02:08.495Z,1.95
2022-07-27T19:04:35.661Z,1.50
2022-07-27T19:07:03.498Z,1.77
2022-07-27T19:09:33.500Z,1.60
2022-07-27T19:12:07.475Z,2.05
2022-07-27T19:14:37.131Z,2.38
2022-07-27T19:17:04.133Z,1.73
2022-07-27T19:19:31.318Z,2.03
2022-07-27T19:21:58.339Z,2.10
2022-07-27T19:24:25.281Z,1.98
2022-07-27T19:26:52.053Z,1.75
2022-07-27T19:29:21.139Z,1.80
2022-07-27T19:31:48.040Z,1.60
2022-07-27T19:34:14.764Z,1.73
2022-07-27T19:36:41.566Z,1.67
2022-07-27T19:39:08.422Z,1.92
2022-07-27T19:41:35.743Z,1.80
2022-07-27T19:44:03.486Z,1.75
2022-07-27T19:46:32.195Z,2.08
2022-07-27T19:48:59.074Z,1.63
2022-07-27T19:51:26.052Z,1.70
2022-07-27T19:53:53.178Z,1.45
2022-07-27T19:56:19.939Z,1.85
2022-07-27T19:58:46.682Z,2.10
2022-07-27T20:01:13.727Z,1.70
2022-07-27T20:03:48.659Z,1.90
2022-07-27T20:06:20.798Z,1.70
2022-07-27T20:08:48.103Z,1.90
2022-07-27T20:11:17.270Z,1.65
2022-07-27T20:13:44.048Z,1.88
2022-07-27T20:16:11.232Z,1.90
2022-07-27T20:18:38.032Z,1.70
2022-07-27T20:21:04.859Z,1.50
2022-07-27T20:23:49.736Z,1.70
2022-07-27T20:26:16.549Z,2.10
2022-07-27T20:28:43.418Z,2.00
2022-07-27T20:31:11.859Z,1.85
2022-07-27T20:33:38.636Z,1.92
2022-07-27T20:36:05.785Z,2.03
2022-07-27T20:38:32.491Z,1.70
2022-07-27T20:40:59.355Z,1.92
2022-07-27T20:43:29.724Z,1.80
2022-07-27T20:45:57.837Z,1.95
2022-07-27T20:48:24.604Z,2.03
2022-07-27T20:50:51.541Z,1.92
2022-07-27T20:53:20.132Z,1.60
2022-07-27T20:55:47.649Z,1.80
2022-07-27T20:58:14.394Z,1.85
2022-07-27T21:00:41.138Z,1.85
2022-07-27T21:03:08.549Z,1.75
2022-07-27T21:05:35.371Z,1.85
2022-07-27T21:08:02.371Z,2.03
2022-07-27T21:10:29.058Z,1.65
2022-07-27T21:12:55.807Z,1.90
2022-07-27T21:15:22.580Z,2.00
2022-07-27T21:18:00.776Z,1.90
2022-07-27T21:20:27.556Z,1.73
2022-07-27T21:23:12.992Z,1.70
2022-07-27T21:25:43.947Z,2.00
2022-07-27T21:28:11.169Z,1.80
2022-07-27T21:30:43.728Z,1.98
2022-07-27T21:33:10.433Z,1.70
2022-07-27T21:35:37.224Z,2.00
2022-07-27T21:38:04.658Z,2.25
2022-07-27T21:40:31.877Z,2.00
2022-07-27T21:42:58.697Z,1.58
2022-07-27T21:45:25.454Z,1.70
2022-07-27T21:47:52.125Z,1.90
2022-07-27T21:50:18.844Z,2.10
2022-07-27T21:52:45.552Z,1.83
2022-07-27T21:55:12.220Z,2.30
2022-07-27T21:57:38.917Z,1.80
2022-07-27T22:00:06.566Z,2.10
2022-07-27T22:02:33.295Z,2.00
2022-07-27T22:05:00.063Z,1.83
2022-07-27T22:07:26.901Z,2.08
2022-07-27T22:09:53.636Z,2.47
2022-07-27T22:12:20.519Z,2.10
2022-07-27T22:14:47.179Z,2.17
2022-07-27T22:17:13.865Z,1.60
2022-07-27T22:19:40.472Z,2.22
2022-07-27T22:22:07.111Z,1.90
2022-07-27T22:24:33.800Z,2.10
2022-07-27T22:27:00.477Z,2.08
2022-07-27T22:29:27.205Z,1.98
2022-07-27T22:31:53.950Z,1.88
2022-07-27T22:34:20.677Z,1.88
2022-07-27T22:36:47.316Z,1.90
2022-07-27T22:39:13.978Z,1.98
2022-07-27T22:41:41.367Z,2.30
2022-07-27T22:44:08.048Z,1.70
2022-07-27T22:46:34.817Z,1.70
2022-07-27T22:49:01.680Z,1.77
2022-07-27T22:51:50.269Z,1.65
2022-07-27T22:54:16.035Z,1.90
2022-07-27T22:56:42.927Z,1.88
2022-07-27T22:59:09.557Z,2.00
2022-07-27T23:01:46.719Z,1.80
2022-07-27T23:04:15.772Z,1.58
2022-07-27T23:06:42.935Z,1.90
2022-07-27T23:09:09.580Z,2.42
2022-07-27T23:11:36.250Z,1.80
2022-07-27T23:14:03.155Z,2.10
2022-07-27T23:16:29.893Z,2.25
2022-07-27T23:18:56.683Z,1.67
2022-07-27T23:21:23.305Z,2.20
2022-07-27T23:23:53.867Z,1.88
2022-07-27T23:26:21.066Z,2.05
2022-07-27T23:28:52.443Z,1.92
2022-07-27T23:31:19.117Z,1.73
2022-07-27T23:33:45.960Z,2.22
2022-07-27T23:36:12.775Z,1.90
2022-07-27T23:38:39.417Z,1.83
2022-07-27T23:41:06.076Z,2.08
2022-07-27T23:43:32.960Z,1.75
2022-07-27T23:45:59.623Z,1.95
2022-07-27T23:48:26.233Z,1.80
2022-07-27T23:50:55.610Z,1.70
2022-07-27T23:53:22.624Z,1.83
2022-07-27T23:55:49.380Z,2.00
2022-07-27T23:58:15.998Z,1.92
